createdAt,value
2023-02-02T00:01:52.605Z,13.90
2023-02-02T00:04:25.016Z,14.60
2023-02-02T00:06:57.191Z,8.73
2023-02-02T00:09:29.098Z,14.63
2023-02-02T00:11:59.308Z,12.53
2023-02-02T00:14:32.730Z,15.00
2023-02-02T00:17:02.614Z,17.00
2023-02-02T00:19:33.667Z,14.60
2023-02-02T00:22:03.517Z,13.40
2023-02-02T00:24:33.621Z,14.47
2023-02-02T00:27:03.700Z,12.37
2023-02-02T00:29:36.284Z,22.23
2023-02-02T00:32:06.148Z,14.53
2023-02-02T00:34:35.908Z,13.60
2023-02-02T00:37:05.772Z,12.73
2023-02-02T00:39:35.580Z,10.60
2023-02-02T00:42:05.380Z,18.50
2023-02-02T00:44:50.104Z,11.70
2023-02-02T00:47:20.480Z,12.23
2023-02-02T00:49:50.208Z,12.90
2023-02-02T00:52:19.854Z,14.23
2023-02-02T00:54:49.657Z,23.67
2023-02-02T00:57:19.530Z,25.43
2023-02-02T00:59:51.927Z,17.30
2023-02-02T01:02:21.762Z,12.93
2023-02-02T01:04:51.799Z,14.90
2023-02-02T01:07:21.595Z,13.37
2023-02-02T01:09:51.656Z,19.63
2023-02-02T01:12:21.503Z,11.10
2023-02-02T01:14:54.179Z,14.37
2023-02-02T01:17:23.942Z,12.47
2023-02-02T01:19:54.217Z,15.10
2023-02-02T01:22:23.984Z,13.17
2023-02-02T01:24:53.795Z,14.73
2023-02-02T01:27:23.561Z,14.50
2023-02-02T01:29:55.927Z,16.77
2023-02-02T01:32:25.642Z,28.60
2023-02-02T01:34:55.363Z,15.87
2023-02-02T01:37:25.149Z,15.77
2023-02-02T01:39:54.891Z,12.97
2023-02-02T01:42:26.427Z,8.90
2023-02-02T01:45:22.743Z,16.23
2023-02-02T01:47:56.999Z,8.40
2023-02-02T01:50:30.270Z,13.73
2023-02-02T01:53:03.656Z,17.50
2023-02-02T01:55:35.623Z,14.40
2023-02-02T01:58:09.140Z,10.93
2023-02-02T02:00:45.649Z,11.60
2023-02-02T02:03:19.800Z,14.77
2023-02-02T02:05:52.390Z,13.37
2023-02-02T02:08:24.475Z,15.87
2023-02-02T02:10:54.213Z,8.00
2023-02-02T02:13:46.611Z,16.03
2023-02-02T02:16:29.350Z,14.53
2023-02-02T02:19:15.668Z,15.70
2023-02-02T02:22:09.025Z,11.77
2023-02-02T02:25:20.963Z,8.97
2023-02-02T02:28:22.675Z,16.17
2023-02-02T02:31:08.326Z,14.97
2023-02-02T02:33:49.596Z,12.80
2023-02-02T02:36:27.011Z,20.83
2023-02-02T02:39:03.211Z,21.03
2023-02-02T02:41:41.007Z,20.13
2023-02-02T02:44:14.734Z,14.90
2023-02-02T02:46:45.643Z,15.30
2023-02-02T02:49:18.043Z,12.77
2023-02-02T02:51:49.856Z,13.70
2023-02-02T02:54:23.516Z,19.30
2023-02-02T02:57:19.126Z,18.57
2023-02-02T02:59:56.912Z,13.80
2023-02-02T03:02:38.456Z,17.13
2023-02-02T03:05:27.787Z,28.97
2023-02-02T03:08:07.101Z,24.50
2023-02-02T03:10:38.686Z,16.73
2023-02-02T03:13:11.812Z,19.57
2023-02-02T03:15:43.894Z,21.73
2023-02-02T03:18:14.679Z,16.30
2023-02-02T03:20:48.203Z,17.83
2023-02-02T03:23:18.445Z,24.43
2023-02-02T03:25:48.768Z,15.80
2023-02-02T03:28:19.329Z,20.43
2023-02-02T03:30:50.606Z,11.87
2023-02-02T03:33:21.400Z,13.03
2023-02-02T03:35:54.192Z,16.03
2023-02-02T03:38:23.943Z,25.53
2023-02-02T03:40:54.307Z,18.33
2023-02-02T03:43:25.087Z,27.37
2023-02-02T03:45:59.494Z,29.10
2023-02-02T03:48:29.751Z,25.30
2023-02-02T03:51:02.107Z,25.10
2023-02-02T03:53:32.122Z,32.57
2023-02-02T03:56:01.870Z,18.47
2023-02-02T03:58:31.592Z,16.43
2023-02-02T04:01:05.146Z,13.73
2023-02-02T04:03:35.379Z,25.20
2023-02-02T04:06:08.268Z,22.43
2023-02-02T04:08:39.838Z,22.77
2023-02-02T04:11:12.982Z,20.13
2023-02-02T04:13:43.503Z,24.87
2023-02-02T04:16:13.818Z,22.33
2023-02-02T04:18:43.599Z,22.67
2023-02-02T04:21:16.090Z,17.50
2023-02-02T04:23:45.839Z,11.93
2023-02-02T04:26:15.897Z,27.57
2023-02-02T04:28:45.626Z,17.13
2023-02-02T04:31:15.467Z,26.37
2023-02-02T04:33:45.442Z,18.10
2023-02-02T04:36:18.016Z,11.70
2023-02-02T04:38:51.665Z,19.57
2023-02-02T04:41:21.784Z,18.80
2023-02-02T04:43:51.604Z,19.03
2023-02-02T04:46:21.441Z,14.73
2023-02-02T04:48:52.110Z,21.87
2023-02-02T04:51:24.478Z,26.47
2023-02-02T04:53:54.280Z,19.13
2023-02-02T04:56:24.012Z,17.53
2023-02-02T04:58:57.189Z,20.67
2023-02-02T05:01:27.258Z,19.70
2023-02-02T05:03:57.579Z,16.53
2023-02-02T05:06:29.899Z,16.83
2023-02-02T05:09:00.124Z,13.87
2023-02-02T05:11:31.081Z,12.93
2023-02-02T05:14:00.885Z,11.60
2023-02-02T05:16:30.765Z,16.30
2023-02-02T05:19:00.725Z,12.50
2023-02-02T05:21:33.071Z,15.40
2023-02-02T05:24:03.744Z,17.03
2023-02-02T05:26:33.623Z,21.73
2023-02-02T05:29:03.589Z,20.20
2023-02-02T05:31:34.134Z,9.77
2023-02-02T05:34:03.880Z,18.43
2023-02-02T05:36:36.155Z,19.07
2023-02-02T05:39:05.959Z,18.27
2023-02-02T05:41:35.781Z,11.50
2023-02-02T05:44:06.699Z,18.63
2023-02-02T05:46:36.478Z,17.07
2023-02-02T05:49:06.683Z,19.37
2023-02-02T05:51:44.018Z,31.43
2023-02-02T05:54:17.443Z,26.40
2023-02-02T05:56:47.181Z,17.57
2023-02-02T05:59:17.553Z,17.23
2023-02-02T06:01:47.882Z,12.40
2023-02-02T06:04:18.316Z,14.63
2023-02-02T06:06:50.802Z,14.23
2023-02-02T06:09:20.541Z,15.73
2023-02-02T06:11:50.460Z,16.83
2023-02-02T06:14:20.537Z,22.57
2023-02-02T06:16:50.367Z,22.17
2023-02-02T06:19:20.328Z,21.87
2023-02-02T06:21:52.958Z,24.57
2023-02-02T06:24:22.724Z,14.57
2023-02-02T06:26:52.576Z,21.07
2023-02-02T06:29:22.422Z,16.57
2023-02-02T06:31:52.355Z,12.83
2023-02-02T06:34:22.370Z,15.20
2023-02-02T06:36:54.706Z,14.03
2023-02-02T06:39:24.390Z,12.33
2023-02-02T06:41:54.135Z,15.47
2023-02-02T06:44:23.918Z,16.77
2023-02-02T06:46:53.712Z,17.30
2023-02-02T06:49:23.692Z,16.37
2023-02-02T06:51:56.124Z,14.37
2023-02-02T06:54:26.014Z,12.90
2023-02-02T06:56:56.215Z,15.90
2023-02-02T06:59:25.993Z,10.70
2023-02-02T07:01:55.985Z,18.20
2023-02-02T07:04:25.809Z,17.80
2023-02-02T07:06:58.296Z,14.00
2023-02-02T07:09:28.250Z,15.07
2023-02-02T07:11:59.455Z,31.67
2023-02-02T07:14:29.935Z,20.00
2023-02-02T07:16:59.791Z,20.90
2023-02-02T07:19:29.543Z,29.23
2023-02-02T07:22:02.013Z,22.43
2023-02-02T07:24:33.020Z,20.47
2023-02-02T07:27:02.800Z,26.37
2023-02-02T07:29:32.691Z,17.47
2023-02-02T07:32:02.510Z,24.83
2023-02-02T07:34:32.244Z,22.87
2023-02-02T07:37:04.779Z,27.00
2023-02-02T07:39:34.570Z,20.40
2023-02-02T07:42:05.606Z,16.23
2023-02-02T07:44:35.442Z,24.87
2023-02-02T07:47:05.250Z,27.30
2023-02-02T07:49:35.370Z,15.77
2023-02-02T07:52:07.874Z,12.73
2023-02-02T07:54:37.760Z,16.90
2023-02-02T07:57:07.709Z,16.83
2023-02-02T07:59:37.460Z,21.33
2023-02-02T08:02:07.394Z,24.83
2023-02-02T08:04:37.203Z,23.73
2023-02-02T08:07:09.877Z,21.10
2023-02-02T08:09:39.749Z,24.90
2023-02-02T08:12:09.592Z,18.37
2023-02-02T08:14:39.500Z,14.93
2023-02-02T08:17:09.510Z,15.87
2023-02-02T08:19:39.290Z,20.47
2023-02-02T08:22:11.705Z,20.50
2023-02-02T08:24:43.056Z,16.10
2023-02-02T08:27:13.645Z,11.67
2023-02-02T08:29:43.433Z,14.83
2023-02-02T08:32:13.282Z,13.27
2023-02-02T08:34:43.163Z,15.53
2023-02-02T08:37:15.696Z,15.60
2023-02-02T08:39:45.847Z,12.10
2023-02-02T08:42:16.020Z,12.97
2023-02-02T08:46:03.354Z,13.50
2023-02-02T08:47:38.138Z,15.47
2023-02-02T08:50:09.503Z,12.37
2023-02-02T08:52:41.947Z,15.07
2023-02-02T08:55:12.253Z,19.47
2023-02-02T08:57:42.335Z,13.53
2023-02-02T09:00:13.902Z,16.37
2023-02-02T09:02:43.644Z,16.90
2023-02-02T09:05:13.407Z,15.70
2023-02-02T09:07:47.317Z,10.03
2023-02-02T09:10:17.213Z,11.37
2023-02-02T09:12:47.065Z,8.50
2023-02-02T09:15:16.919Z,15.67
2023-02-02T09:17:46.640Z,13.43
2023-02-02T09:20:16.423Z,14.00
2023-02-02T09:22:48.793Z,11.83
2023-02-02T09:25:18.733Z,17.03
2023-02-02T09:27:48.481Z,28.37
2023-02-02T09:30:18.629Z,22.83
2023-02-02T09:32:51.239Z,18.13
2023-02-02T09:35:21.016Z,19.83
2023-02-02T09:37:53.512Z,19.83
2023-02-02T09:40:27.970Z,21.67
2023-02-02T09:43:08.456Z,16.27
2023-02-02T09:45:44.244Z,16.33
2023-02-02T09:48:29.836Z,17.87
2023-02-02T09:51:02.471Z,21.17
2023-02-02T09:53:55.240Z,18.10
2023-02-02T09:56:30.259Z,20.03
2023-02-02T09:59:18.808Z,27.53
2023-02-02T10:01:52.899Z,33.77
2023-02-02T10:04:29.428Z,27.00
2023-02-02T10:07:02.057Z,18.40
2023-02-02T10:09:43.784Z,18.13
2023-02-02T10:12:28.592Z,19.17
2023-02-02T10:15:04.409Z,23.57
2023-02-02T10:17:43.809Z,20.70
2023-02-02T10:20:25.707Z,20.90
2023-02-02T10:22:59.023Z,19.90
2023-02-02T10:25:32.577Z,13.77
2023-02-02T10:28:09.902Z,19.27
2023-02-02T10:30:48.117Z,15.57
2023-02-02T10:33:28.884Z,16.43
2023-02-02T10:36:05.223Z,15.40
2023-02-02T10:38:44.994Z,15.30
2023-02-02T10:41:27.094Z,7.33
2023-02-02T10:44:12.145Z,28.43
2023-02-02T10:46:45.053Z,18.47
2023-02-02T10:49:20.481Z,20.20
2023-02-02T10:51:58.284Z,11.03
2023-02-02T10:54:57.817Z,16.93
2023-02-02T10:57:49.982Z,20.10
2023-02-02T11:00:25.602Z,17.77
2023-02-02T11:02:56.347Z,14.87
2023-02-02T11:05:40.148Z,14.00
2023-02-02T11:08:18.471Z,13.07
2023-02-02T11:10:49.762Z,18.97
2023-02-02T11:13:30.404Z,14.47
2023-02-02T11:16:23.175Z,20.00
2023-02-02T11:18:53.402Z,18.50
2023-02-02T11:21:27.026Z,14.13
2023-02-02T11:23:58.674Z,15.83
2023-02-02T11:26:29.907Z,12.60
2023-02-02T11:29:02.611Z,12.63
2023-02-02T11:31:37.106Z,15.03
2023-02-02T11:34:20.910Z,14.33
2023-02-02T11:37:18.795Z,13.33
2023-02-02T11:39:48.652Z,17.30
2023-02-02T11:42:20.258Z,18.93
2023-02-02T11:44:55.132Z,16.27
2023-02-02T11:47:29.685Z,14.10
2023-02-02T11:50:02.136Z,15.60
2023-02-02T11:52:36.176Z,15.73
2023-02-02T11:55:18.277Z,14.53
2023-02-02T11:58:25.053Z,17.13
2023-02-02T12:01:00.541Z,21.97
2023-02-02T12:03:33.304Z,17.17
2023-02-02T12:06:04.911Z,21.57
2023-02-02T12:08:34.678Z,20.57
2023-02-02T12:11:08.242Z,19.03
2023-02-02T12:13:53.190Z,15.30
2023-02-02T12:16:43.488Z,14.70
2023-02-02T12:19:44.337Z,14.07
2023-02-02T12:22:27.424Z,21.30
2023-02-02T12:25:03.280Z,14.83
2023-02-02T12:27:42.592Z,8.33
2023-02-02T12:30:32.584Z,23.47
2023-02-02T12:33:24.304Z,12.70
2023-02-02T12:36:14.958Z,13.77
2023-02-02T12:39:06.508Z,15.40
2023-02-02T12:42:05.257Z,17.63
2023-02-02T12:44:45.779Z,20.90
2023-02-02T12:47:24.240Z,17.37
2023-02-02T12:50:07.605Z,11.07
2023-02-02T12:52:54.585Z,18.67
2023-02-02T12:55:33.041Z,13.77
2023-02-02T12:58:15.792Z,16.00
2023-02-02T13:01:04.499Z,13.63
2023-02-02T13:03:45.114Z,13.63
2023-02-02T13:06:40.315Z,9.80
2023-02-02T13:09:15.015Z,10.67
2023-02-02T13:11:50.159Z,13.73
2023-02-02T13:14:25.544Z,10.60
2023-02-02T13:17:00.039Z,11.07
2023-02-02T13:19:35.226Z,12.63
2023-02-02T13:22:14.559Z,16.80
2023-02-02T13:24:47.775Z,14.17
2023-02-02T13:27:22.671Z,12.63
2023-02-02T13:29:57.480Z,16.80
2023-02-02T13:32:32.155Z,17.53
2023-02-02T13:35:06.323Z,16.30
2023-02-02T13:37:45.509Z,13.10
2023-02-02T13:40:27.073Z,10.10
2023-02-02T13:43:03.448Z,13.63
2023-02-02T13:45:45.613Z,19.40
2023-02-02T13:48:25.884Z,10.67
2023-02-02T13:51:15.186Z,12.73
2023-02-02T13:54:01.586Z,13.67
2023-02-02T13:56:43.379Z,20.63
2023-02-02T13:59:50.594Z,13.27
2023-02-02T14:02:26.687Z,13.93
2023-02-02T14:04:59.221Z,16.60
2023-02-02T14:07:41.928Z,20.93
2023-02-02T14:10:28.423Z,29.10
2023-02-02T14:13:01.501Z,14.10
2023-02-02T14:15:42.970Z,15.57
2023-02-02T14:18:12.843Z,14.60
2023-02-02T14:20:46.294Z,13.43
2023-02-02T14:23:51.308Z,17.23
2023-02-02T14:26:44.380Z,19.60
2023-02-02T14:29:39.641Z,17.40
2023-02-02T14:32:34.886Z,12.77
2023-02-02T14:35:40.470Z,14.63
2023-02-02T14:38:14.953Z,17.20
2023-02-02T14:40:52.519Z,16.00
2023-02-02T14:43:44.838Z,22.57
2023-02-02T14:46:48.569Z,17.97
2023-02-02T14:49:24.646Z,18.17
2023-02-02T14:51:58.565Z,15.07
2023-02-02T14:54:36.639Z,13.33
2023-02-02T14:57:10.502Z,12.57
2023-02-02T14:59:48.662Z,15.03
2023-02-02T15:02:22.392Z,12.23
2023-02-02T15:04:52.617Z,16.70
2023-02-02T15:07:52.336Z,16.33
2023-02-02T15:10:53.911Z,16.47
2023-02-02T15:13:24.861Z,20.03
2023-02-02T15:16:14.206Z,17.70
2023-02-02T15:18:47.605Z,23.73
2023-02-02T15:21:22.130Z,17.00
2023-02-02T15:23:52.004Z,15.77
2023-02-02T15:26:26.697Z,19.27
2023-02-02T15:29:02.719Z,16.57
2023-02-02T15:31:38.650Z,12.37
2023-02-02T15:34:20.908Z,15.43
2023-02-02T15:36:54.438Z,12.23
2023-02-02T15:39:30.851Z,13.67
2023-02-02T15:42:16.840Z,10.80
2023-02-02T15:44:46.888Z,11.93
2023-02-02T15:47:23.363Z,12.10
2023-02-02T15:49:53.142Z,8.90
2023-02-02T15:52:29.083Z,10.60
2023-02-02T15:55:00.999Z,15.80
2023-02-02T15:57:33.486Z,9.03
2023-02-02T16:00:24.222Z,11.40
2023-02-02T16:03:01.506Z,10.17
2023-02-02T16:05:47.643Z,13.83
2023-02-02T16:08:22.636Z,16.63
2023-02-02T16:10:52.741Z,8.90
2023-02-02T16:13:28.528Z,14.20
2023-02-02T16:16:00.646Z,16.43
2023-02-02T16:18:33.349Z,19.07
2023-02-02T16:21:07.671Z,16.07
2023-02-02T16:23:38.829Z,15.97
2023-02-02T16:26:10.293Z,20.43
2023-02-02T16:28:40.333Z,15.90
2023-02-02T16:31:10.980Z,18.10
2023-02-02T16:33:45.784Z,24.27
2023-02-02T16:36:25.938Z,20.87
2023-02-02T16:38:58.013Z,23.03
2023-02-02T16:41:32.402Z,18.90
2023-02-02T16:44:32.444Z,17.20
2023-02-02T16:47:03.172Z,20.03
2023-02-02T16:49:36.371Z,15.97
2023-02-02T16:52:16.319Z,17.20
2023-02-02T16:54:54.339Z,18.90
2023-02-02T16:57:28.557Z,21.53
2023-02-02T17:00:01.891Z,22.13
2023-02-02T17:02:35.452Z,22.90
2023-02-02T17:05:13.244Z,18.67
2023-02-02T17:07:50.808Z,26.00
2023-02-02T17:10:31.059Z,15.63
2023-02-02T17:13:01.979Z,20.30
2023-02-02T17:15:35.851Z,20.77
2023-02-02T17:18:07.617Z,21.20
2023-02-02T17:20:40.077Z,19.33
2023-02-02T17:23:11.439Z,18.27
2023-02-02T17:25:45.714Z,18.43
2023-02-02T17:28:18.879Z,17.37
2023-02-02T17:30:50.072Z,18.27
2023-02-02T17:33:21.867Z,16.70
2023-02-02T17:35:56.228Z,15.33
2023-02-02T17:38:28.016Z,14.13
2023-02-02T17:41:01.682Z,13.77
2023-02-02T17:43:32.148Z,12.13
2023-02-02T17:46:02.380Z,14.07
2023-02-02T17:48:32.798Z,17.97
2023-02-02T17:51:07.318Z,14.83
2023-02-02T17:53:37.170Z,13.97
2023-02-02T17:56:07.505Z,12.53
2023-02-02T17:58:37.377Z,15.03
2023-02-02T18:01:07.939Z,14.73
2023-02-02T18:03:41.643Z,13.17
2023-02-02T18:06:15.062Z,16.17
2023-02-02T18:08:45.652Z,12.80
2023-02-02T18:11:18.809Z,15.90
2023-02-02T18:13:48.945Z,13.60
2023-02-02T18:16:19.920Z,15.40
2023-02-02T18:18:49.746Z,13.77
2023-02-02T18:21:22.198Z,12.43
2023-02-02T18:23:52.139Z,12.37
2023-02-02T18:26:24.456Z,15.13
2023-02-02T18:28:54.873Z,16.70
2023-02-02T18:31:26.959Z,15.27
2023-02-02T18:33:57.335Z,12.10
2023-02-02T18:36:29.797Z,15.30
2023-02-02T18:38:59.909Z,16.33
2023-02-02T18:41:30.433Z,19.07
2023-02-02T18:44:00.721Z,19.70
2023-02-02T18:46:33.952Z,16.50
2023-02-02T18:49:04.031Z,19.63
2023-02-02T18:51:36.419Z,20.37
2023-02-02T18:54:06.325Z,21.33
2023-02-02T18:56:36.144Z,21.67
2023-02-02T18:59:06.597Z,21.10
2023-02-02T19:01:37.411Z,23.67
2023-02-02T19:04:07.701Z,19.87
2023-02-02T19:06:52.796Z,22.77
2023-02-02T19:09:22.623Z,22.07
2023-02-02T19:11:55.050Z,25.87
2023-02-02T19:14:27.715Z,25.20
2023-02-02T19:17:02.229Z,21.90
2023-02-02T19:19:36.022Z,23.80
2023-02-02T19:22:20.093Z,27.30
2023-02-02T19:24:50.556Z,22.97
2023-02-02T19:27:22.400Z,25.30
2023-02-02T19:29:53.888Z,25.60
2023-02-02T19:32:27.000Z,30.87
2023-02-02T19:34:58.730Z,29.40
2023-02-02T19:37:33.036Z,31.77
2023-02-02T19:40:19.409Z,27.20
2023-02-02T19:42:52.401Z,29.80
2023-02-02T19:45:25.413Z,26.77
2023-02-02T19:47:57.229Z,31.70
2023-02-02T19:50:29.669Z,21.20
2023-02-02T19:53:06.778Z,24.83
2023-02-02T19:55:39.298Z,29.73
2023-02-02T19:58:18.751Z,27.43
2023-02-02T20:00:49.458Z,29.87
2023-02-02T20:03:21.611Z,33.00
2023-02-02T20:05:53.662Z,28.70
2023-02-02T20:08:41.751Z,27.13
2023-02-02T20:11:31.997Z,26.53
2023-02-02T20:14:03.101Z,37.10
2023-02-02T20:16:40.887Z,30.83
2023-02-02T20:19:19.584Z,25.17
2023-02-02T20:21:51.749Z,28.00
2023-02-02T20:24:27.363Z,26.13
2023-02-02T20:26:58.784Z,24.33
2023-02-02T20:29:35.969Z,28.87
2023-02-02T20:32:07.809Z,30.17
2023-02-02T20:34:43.303Z,29.57
2023-02-02T20:37:23.970Z,25.70
2023-02-02T20:40:00.295Z,25.53
2023-02-02T20:42:31.310Z,27.13
2023-02-02T20:45:01.262Z,25.17
2023-02-02T20:47:31.046Z,23.57
2023-02-02T20:50:01.289Z,25.50
2023-02-02T20:52:31.203Z,25.23
2023-02-02T20:55:03.852Z,24.70
2023-02-02T20:57:33.833Z,21.17
2023-02-02T21:00:03.963Z,22.47
2023-02-02T21:02:33.788Z,20.97
2023-02-02T21:05:04.822Z,23.20
2023-02-02T21:07:34.736Z,23.10
2023-02-02T21:10:07.853Z,25.57
2023-02-02T21:12:37.652Z,23.47
2023-02-02T21:15:08.095Z,19.50
2023-02-02T21:17:37.828Z,22.63
2023-02-02T21:20:08.850Z,25.27
2023-02-02T21:22:38.569Z,19.07
2023-02-02T21:25:12.532Z,20.40
2023-02-02T21:27:44.622Z,20.03
2023-02-02T21:30:16.067Z,21.97
2023-02-02T21:32:45.902Z,25.47
2023-02-02T21:35:15.948Z,18.47
2023-02-02T21:37:47.385Z,21.00
2023-02-02T21:40:28.793Z,20.73
2023-02-02T21:43:01.652Z,23.93
2023-02-02T21:45:37.275Z,20.97
2023-02-02T21:48:23.239Z,18.57
2023-02-02T21:50:53.231Z,23.50
2023-02-02T21:53:25.212Z,26.03
2023-02-02T21:56:00.182Z,19.50
2023-02-02T21:58:36.332Z,19.40
2023-02-02T22:01:21.344Z,19.20
2023-02-02T22:03:51.937Z,16.90
2023-02-02T22:06:31.133Z,21.80
2023-02-02T22:09:05.013Z,22.23
2023-02-02T22:11:45.724Z,22.17
2023-02-02T22:14:20.563Z,25.50
2023-02-02T22:16:53.183Z,17.70
2023-02-02T22:19:35.732Z,23.00
2023-02-02T22:22:18.332Z,24.63
2023-02-02T22:24:50.885Z,26.07
2023-02-02T22:27:26.298Z,23.50
2023-02-02T22:30:03.729Z,26.40
2023-02-02T22:32:33.472Z,24.93
2023-02-02T22:35:03.185Z,20.10
2023-02-02T22:37:32.990Z,21.67
2023-02-02T22:40:03.136Z,23.77
2023-02-02T22:42:35.580Z,22.63
2023-02-02T22:45:05.503Z,27.37
2023-02-02T22:47:35.457Z,25.67
2023-02-02T22:50:05.174Z,27.63
2023-02-02T22:52:34.912Z,19.97
2023-02-02T22:55:04.681Z,27.57
2023-02-02T22:57:37.081Z,19.27
2023-02-02T23:00:10.612Z,25.97
2023-02-02T23:02:40.475Z,23.40
2023-02-02T23:05:12.705Z,22.37
2023-02-02T23:07:44.204Z,21.63
2023-02-02T23:10:16.103Z,17.77
2023-02-02T23:12:49.062Z,21.43
2023-02-02T23:15:19.610Z,21.67
2023-02-02T23:17:49.745Z,21.10
2023-02-02T23:20:19.682Z,24.53
2023-02-02T23:22:49.450Z,24.27
2023-02-02T23:25:20.215Z,22.97
2023-02-02T23:27:52.655Z,22.90
2023-02-02T23:30:24.563Z,22.57
2023-02-02T23:32:54.699Z,24.53
2023-02-02T23:35:24.411Z,21.90
2023-02-02T23:37:54.351Z,20.90
2023-02-02T23:40:24.474Z,22.30
2023-02-02T23:42:57.395Z,26.20
2023-02-02T23:45:27.446Z,20.30
2023-02-02T23:47:57.421Z,18.37
2023-02-02T23:50:27.675Z,20.37
2023-02-02T23:52:58.105Z,25.03
2023-02-02T23:55:27.950Z,24.30
2023-02-02T23:58:00.332Z,16.47
